sensor_id;sensor_type;location;lat;lon;timestamp;temperature;humidity
72440;DHT22;60446;50.752;4.352;2024-03-02T00:00:25;5.30;99.90
72440;DHT22;60446;50.752;4.352;2024-03-02T00:02:53;5.40;99.90
72440;DHT22;60446;50.752;4.352;2024-03-02T00:05:22;5.30;99.90
72440;DHT22;60446;50.752;4.352;2024-03-02T00:07:55;5.40;99.90
72440;DHT22;60446;50.752;4.352;2024-03-02T00:10:38;5.30;99.90
72440;DHT22;60446;50.752;4.352;2024-03-02T00:13:09;5.30;99.90
72440;DHT22;60446;50.752;4.352;2024-03-02T00:15:40;5.30;99.90
72440;DHT22;60446;50.752;4.352;2024-03-02T00:18:19;5.30;99.90
72440;DHT22;60446;50.752;4.352;2024-03-02T00:21:07;5.30;99.90
72440;DHT22;60446;50.752;4.352;2024-03-02T00:23:40;5.30;99.90
72440;DHT22;60446;50.752;4.352;2024-03-02T00:26:11;5.30;99.90
72440;DHT22;60446;50.752;4.352;2024-03-02T00:28:41;5.30;99.90
72440;DHT22;60446;50.752;4.352;2024-03-02T00:31:12;5.20;99.90
72440;DHT22;60446;50.752;4.352;2024-03-02T00:33:45;5.10;99.90
72440;DHT22;60446;50.752;4.352;2024-03-02T00:36:22;5.10;99.90
72440;DHT22;60446;50.752;4.352;2024-03-02T00:38:54;5.10;99.90
72440;DHT22;60446;50.752;4.352;2024-03-02T00:41:25;5.10;99.90
72440;DHT22;60446;50.752;4.352;2024-03-02T00:46:36;5.20;99.90
72440;DHT22;60446;50.752;4.352;2024-03-02T00:49:20;5.10;99.90
72440;DHT22;60446;50.752;4.352;2024-03-02T00:51:53;5.10;99.90
72440;DHT22;60446;50.752;4.352;2024-03-02T00:54:23;5.10;99.90
72440;DHT22;60446;50.752;4.352;2024-03-02T00:56:53;5.10;99.90
72440;DHT22;60446;50.752;4.352;2024-03-02T00:59:23;5.10;99.90
72440;DHT22;60446;50.752;4.352;2024-03-02T01:01:52;5.10;99.90
72440;DHT22;60446;50.752;4.352;2024-03-02T01:04:20;5.10;99.90
72440;DHT22;60446;50.752;4.352;2024-03-02T01:06:48;5.10;99.90
72440;DHT22;60446;50.752;4.352;2024-03-02T01:09:15;5.10;99.90
72440;DHT22;60446;50.752;4.352;2024-03-02T01:11:45;5.10;99.90
72440;DHT22;60446;50.752;4.352;2024-03-02T01:14:12;5.10;99.90
72440;DHT22;60446;50.752;4.352;2024-03-02T01:16:39;5.10;99.90
72440;DHT22;60446;50.752;4.352;2024-03-02T01:19:06;5.00;99.90
72440;DHT22;60446;50.752;4.352;2024-03-02T01:21:34;5.00;99.90
72440;DHT22;60446;50.752;4.352;2024-03-02T01:24:04;5.00;99.90
72440;DHT22;60446;50.752;4.352;2024-03-02T01:26:31;5.00;99.90
72440;DHT22;60446;50.752;4.352;2024-03-02T01:28:58;5.10;99.90
72440;DHT22;60446;50.752;4.352;2024-03-02T01:31:25;5.10;99.90
72440;DHT22;60446;50.752;4.352;2024-03-02T01:33:52;5.10;99.90
72440;DHT22;60446;50.752;4.352;2024-03-02T01:36:20;5.10;99.90
72440;DHT22;60446;50.752;4.352;2024-03-02T01:38:47;5.10;99.90
72440;DHT22;60446;50.752;4.352;2024-03-02T01:41:15;5.10;99.90
72440;DHT22;60446;50.752;4.352;2024-03-02T01:43:42;5.10;99.90
72440;DHT22;60446;50.752;4.352;2024-03-02T01:46:09;5.10;99.90
72440;DHT22;60446;50.752;4.352;2024-03-02T01:48:39;5.20;99.90
72440;DHT22;60446;50.752;4.352;2024-03-02T01:51:07;5.20;99.90
72440;DHT22;60446;50.752;4.352;2024-03-02T01:53:34;5.20;99.90
72440;DHT22;60446;50.752;4.352;2024-03-02T01:56:02;5.20;99.90
72440;DHT22;60446;50.752;4.352;2024-03-02T01:58:29;5.20;99.90
72440;DHT22;60446;50.752;4.352;2024-03-02T02:00:57;5.20;99.90
72440;DHT22;60446;50.752;4.352;2024-03-02T02:03:24;5.20;99.90
72440;DHT22;60446;50.752;4.352;2024-03-02T02:05:53;5.30;99.90
72440;DHT22;60446;50.752;4.352;2024-03-02T02:08:20;5.20;99.90
72440;DHT22;60446;50.752;4.352;2024-03-02T02:10:47;5.20;99.90
72440;DHT22;60446;50.752;4.352;2024-03-02T02:13:14;5.20;99.90
72440;DHT22;60446;50.752;4.352;2024-03-02T02:15:42;5.30;99.90
72440;DHT22;60446;50.752;4.352;2024-03-02T02:18:10;5.30;99.90
72440;DHT22;60446;50.752;4.352;2024-03-02T02:20:37;5.20;99.90
72440;DHT22;60446;50.752;4.352;2024-03-02T02:23:04;5.30;99.90
72440;DHT22;60446;50.752;4.352;2024-03-02T02:25:32;5.30;99.90
72440;DHT22;60446;50.752;4.352;2024-03-02T02:28:01;5.30;99.90
72440;DHT22;60446;50.752;4.352;2024-03-02T02:30:31;5.20;99.90
72440;DHT22;60446;50.752;4.352;2024-03-02T02:32:59;5.20;99.90
72440;DHT22;60446;50.752;4.352;2024-03-02T02:35:26;5.20;99.90
72440;DHT22;60446;50.752;4.352;2024-03-02T02:37:55;5.20;99.90
72440;DHT22;60446;50.752;4.352;2024-03-02T02:40:24;5.20;99.90
72440;DHT22;60446;50.752;4.352;2024-03-02T02:42:51;5.10;99.90
72440;DHT22;60446;50.752;4.352;2024-03-02T02:45:19;5.10;99.90
72440;DHT22;60446;50.752;4.352;2024-03-02T02:47:47;5.10;99.90
72440;DHT22;60446;50.752;4.352;2024-03-02T02:50:14;5.20;99.90
72440;DHT22;60446;50.752;4.352;2024-03-02T02:52:42;5.10;99.90
72440;DHT22;60446;50.752;4.352;2024-03-02T02:55:12;5.10;99.90
72440;DHT22;60446;50.752;4.352;2024-03-02T02:57:41;5.00;99.90
72440;DHT22;60446;50.752;4.352;2024-03-02T03:00:15;4.90;99.90
72440;DHT22;60446;50.752;4.352;2024-03-02T03:02:46;4.80;99.90
72440;DHT22;60446;50.752;4.352;2024-03-02T03:05:16;4.70;99.90
72440;DHT22;60446;50.752;4.352;2024-03-02T03:07:44;4.70;99.90
72440;DHT22;60446;50.752;4.352;2024-03-02T03:10:12;4.60;99.90
72440;DHT22;60446;50.752;4.352;2024-03-02T03:12:41;4.60;99.90
72440;DHT22;60446;50.752;4.352;2024-03-02T03:15:10;4.70;99.90
72440;DHT22;60446;50.752;4.352;2024-03-02T03:17:38;4.70;99.90
72440;DHT22;60446;50.752;4.352;2024-03-02T03:20:06;4.80;99.90
72440;DHT22;60446;50.752;4.352;2024-03-02T03:22:37;4.80;99.90
72440;DHT22;60446;50.752;4.352;2024-03-02T03:25:07;4.90;99.90
72440;DHT22;60446;50.752;4.352;2024-03-02T03:27:36;4.90;99.90
72440;DHT22;60446;50.752;4.352;2024-03-02T03:30:03;4.90;99.90
72440;DHT22;60446;50.752;4.352;2024-03-02T03:32:33;5.00;99.90
72440;DHT22;60446;50.752;4.352;2024-03-02T03:35:00;5.10;99.90
72440;DHT22;60446;50.752;4.352;2024-03-02T03:37:27;5.00;99.90
72440;DHT22;60446;50.752;4.352;2024-03-02T03:40:00;5.10;99.90
72440;DHT22;60446;50.752;4.352;2024-03-02T03:42:38;5.00;99.90
72440;DHT22;60446;50.752;4.352;2024-03-02T03:45:07;5.10;99.90
72440;DHT22;60446;50.752;4.352;2024-03-02T03:47:34;5.10;99.90
72440;DHT22;60446;50.752;4.352;2024-03-02T03:50:01;5.00;99.90
72440;DHT22;60446;50.752;4.352;2024-03-02T03:52:32;5.00;99.90
72440;DHT22;60446;50.752;4.352;2024-03-02T03:55:00;5.00;99.90
72440;DHT22;60446;50.752;4.352;2024-03-02T03:57:27;4.90;99.90
72440;DHT22;60446;50.752;4.352;2024-03-02T03:59:54;4.90;99.90
72440;DHT22;60446;50.752;4.352;2024-03-02T04:02:22;5.00;99.90
72440;DHT22;60446;50.752;4.352;2024-03-02T04:04:49;4.90;99.90
72440;DHT22;60446;50.752;4.352;2024-03-02T04:07:16;4.90;99.90
72440;DHT22;60446;50.752;4.352;2024-03-02T04:09:43;4.80;99.90
72440;DHT22;60446;50.752;4.352;2024-03-02T04:12:10;4.70;99.90
72440;DHT22;60446;50.752;4.352;2024-03-02T04:14:40;4.70;99.90
72440;DHT22;60446;50.752;4.352;2024-03-02T04:17:11;4.70;99.90
72440;DHT22;60446;50.752;4.352;2024-03-02T04:19:38;4.70;99.90
72440;DHT22;60446;50.752;4.352;2024-03-02T04:22:07;4.70;99.90
72440;DHT22;60446;50.752;4.352;2024-03-02T04:24:47;4.70;99.90
72440;DHT22;60446;50.752;4.352;2024-03-02T04:27:14;4.70;99.90
72440;DHT22;60446;50.752;4.352;2024-03-02T04:29:41;4.60;99.90
72440;DHT22;60446;50.752;4.352;2024-03-02T04:32:08;4.60;99.90
72440;DHT22;60446;50.752;4.352;2024-03-02T04:34:35;4.50;99.90
72440;DHT22;60446;50.752;4.352;2024-03-02T04:37:02;4.50;99.90
72440;DHT22;60446;50.752;4.352;2024-03-02T04:39:30;4.40;99.90
72440;DHT22;60446;50.752;4.352;2024-03-02T04:41:57;4.40;99.90
72440;DHT22;60446;50.752;4.352;2024-03-02T04:44:25;4.40;99.90
72440;DHT22;60446;50.752;4.352;2024-03-02T04:46:52;4.40;99.90
72440;DHT22;60446;50.752;4.352;2024-03-02T04:49:19;4.40;99.90
72440;DHT22;60446;50.752;4.352;2024-03-02T04:51:46;4.40;99.90
72440;DHT22;60446;50.752;4.352;2024-03-02T04:54:14;4.20;99.90
72440;DHT22;60446;50.752;4.352;2024-03-02T04:56:41;4.20;99.90
72440;DHT22;60446;50.752;4.352;2024-03-02T04:59:17;4.20;99.90
72440;DHT22;60446;50.752;4.352;2024-03-02T05:01:47;4.20;99.90
72440;DHT22;60446;50.752;4.352;2024-03-02T05:04:15;4.10;99.90
72440;DHT22;60446;50.752;4.352;2024-03-02T05:06:42;4.10;99.90
72440;DHT22;60446;50.752;4.352;2024-03-02T05:09:10;4.10;99.90
72440;DHT22;60446;50.752;4.352;2024-03-02T05:11:37;4.10;99.90
72440;DHT22;60446;50.752;4.352;2024-03-02T05:14:08;4.10;99.90
72440;DHT22;60446;50.752;4.352;2024-03-02T05:16:35;4.10;99.90
72440;DHT22;60446;50.752;4.352;2024-03-02T05:19:05;4.00;99.90
72440;DHT22;60446;50.752;4.352;2024-03-02T05:21:35;3.90;99.90
72440;DHT22;60446;50.752;4.352;2024-03-02T05:24:02;4.00;99.90
72440;DHT22;60446;50.752;4.352;2024-03-02T05:26:30;4.00;99.90
72440;DHT22;60446;50.752;4.352;2024-03-02T05:28:57;4.00;99.90
72440;DHT22;60446;50.752;4.352;2024-03-02T05:31:24;3.90;99.90
72440;DHT22;60446;50.752;4.352;2024-03-02T05:33:51;3.90;99.90
72440;DHT22;60446;50.752;4.352;2024-03-02T05:36:23;3.90;99.90
72440;DHT22;60446;50.752;4.352;2024-03-02T05:38:51;3.90;99.90
72440;DHT22;60446;50.752;4.352;2024-03-02T05:41:18;3.90;99.90
72440;DHT22;60446;50.752;4.352;2024-03-02T05:43:45;3.80;99.90
72440;DHT22;60446;50.752;4.352;2024-03-02T05:46:13;3.80;99.90
72440;DHT22;60446;50.752;4.352;2024-03-02T05:48:40;3.80;99.90
72440;DHT22;60446;50.752;4.352;2024-03-02T05:51:07;3.90;99.90
72440;DHT22;60446;50.752;4.352;2024-03-02T05:53:34;3.80;99.90
72440;DHT22;60446;50.752;4.352;2024-03-02T05:56:05;3.70;99.90
72440;DHT22;60446;50.752;4.352;2024-03-02T05:58:33;3.80;99.90
72440;DHT22;60446;50.752;4.352;2024-03-02T06:01:19;3.80;99.90
72440;DHT22;60446;50.752;4.352;2024-03-02T06:03:47;3.70;99.90
72440;DHT22;60446;50.752;4.352;2024-03-02T06:06:14;3.70;99.90
72440;DHT22;60446;50.752;4.352;2024-03-02T06:08:41;3.70;99.90
72440;DHT22;60446;50.752;4.352;2024-03-02T06:11:08;3.70;99.90
72440;DHT22;60446;50.752;4.352;2024-03-02T06:13:35;3.80;99.90
72440;DHT22;60446;50.752;4.352;2024-03-02T06:16:02;3.70;99.90
72440;DHT22;60446;50.752;4.352;2024-03-02T06:18:30;3.70;99.90
72440;DHT22;60446;50.752;4.352;2024-03-02T06:20:57;3.70;99.90
72440;DHT22;60446;50.752;4.352;2024-03-02T06:23:24;3.70;99.90
72440;DHT22;60446;50.752;4.352;2024-03-02T06:25:51;3.70;99.90
72440;DHT22;60446;50.752;4.352;2024-03-02T06:28:19;3.70;99.90
72440;DHT22;60446;50.752;4.352;2024-03-02T06:30:46;3.70;99.90
72440;DHT22;60446;50.752;4.352;2024-03-02T06:33:13;3.80;99.90
72440;DHT22;60446;50.752;4.352;2024-03-02T06:35:53;3.80;99.90
72440;DHT22;60446;50.752;4.352;2024-03-02T06:38:20;3.80;99.90
72440;DHT22;60446;50.752;4.352;2024-03-02T06:40:47;3.80;99.90
72440;DHT22;60446;50.752;4.352;2024-03-02T06:43:14;3.80;99.90
72440;DHT22;60446;50.752;4.352;2024-03-02T06:45:42;3.80;99.90
72440;DHT22;60446;50.752;4.352;2024-03-02T06:48:09;3.80;99.90
72440;DHT22;60446;50.752;4.352;2024-03-02T06:50:36;3.80;99.90
72440;DHT22;60446;50.752;4.352;2024-03-02T06:53:04;3.80;99.90
72440;DHT22;60446;50.752;4.352;2024-03-02T06:55:31;3.80;99.90
72440;DHT22;60446;50.752;4.352;2024-03-02T06:57:58;3.70;99.90
72440;DHT22;60446;50.752;4.352;2024-03-02T07:00:26;3.70;99.90
72440;DHT22;60446;50.752;4.352;2024-03-02T07:02:53;3.70;99.90
72440;DHT22;60446;50.752;4.352;2024-03-02T07:05:20;3.80;99.90
72440;DHT22;60446;50.752;4.352;2024-03-02T07:07:48;3.80;99.90
72440;DHT22;60446;50.752;4.352;2024-03-02T07:10:16;3.90;99.90
72440;DHT22;60446;50.752;4.352;2024-03-02T07:12:43;3.90;99.90
72440;DHT22;60446;50.752;4.352;2024-03-02T07:15:11;3.90;99.90
72440;DHT22;60446;50.752;4.352;2024-03-02T07:17:56;4.00;99.90
72440;DHT22;60446;50.752;4.352;2024-03-02T07:20:23;4.00;99.90
72440;DHT22;60446;50.752;4.352;2024-03-02T07:22:51;4.00;99.90
72440;DHT22;60446;50.752;4.352;2024-03-02T07:25:18;4.10;99.90
72440;DHT22;60446;50.752;4.352;2024-03-02T07:27:49;4.10;99.90
72440;DHT22;60446;50.752;4.352;2024-03-02T07:30:16;4.10;99.90
72440;DHT22;60446;50.752;4.352;2024-03-02T07:32:44;4.10;99.90
72440;DHT22;60446;50.752;4.352;2024-03-02T07:35:13;4.20;99.90
72440;DHT22;60446;50.752;4.352;2024-03-02T07:37:42;4.20;99.90
72440;DHT22;60446;50.752;4.352;2024-03-02T07:40:09;4.20;99.90
72440;DHT22;60446;50.752;4.352;2024-03-02T07:42:41;4.20;99.90
72440;DHT22;60446;50.752;4.352;2024-03-02T07:45:08;4.30;99.90
72440;DHT22;60446;50.752;4.352;2024-03-02T07:47:36;4.40;99.90
72440;DHT22;60446;50.752;4.352;2024-03-02T07:50:03;4.40;99.90
72440;DHT22;60446;50.752;4.352;2024-03-02T07:52:33;4.50;99.90
72440;DHT22;60446;50.752;4.352;2024-03-02T07:55:02;4.50;99.90
72440;DHT22;60446;50.752;4.352;2024-03-02T07:57:29;4.60;99.90
72440;DHT22;60446;50.752;4.352;2024-03-02T07:59:57;4.70;99.90
72440;DHT22;60446;50.752;4.352;2024-03-02T08:02:26;4.70;99.90
72440;DHT22;60446;50.752;4.352;2024-03-02T08:04:53;4.70;99.90
72440;DHT22;60446;50.752;4.352;2024-03-02T08:07:21;4.80;99.90
72440;DHT22;60446;50.752;4.352;2024-03-02T08:09:48;4.90;99.90
72440;DHT22;60446;50.752;4.352;2024-03-02T08:12:16;4.90;99.90
72440;DHT22;60446;50.752;4.352;2024-03-02T08:14:45;5.00;99.90
72440;DHT22;60446;50.752;4.352;2024-03-02T08:17:13;5.10;99.90
72440;DHT22;60446;50.752;4.352;2024-03-02T08:19:40;5.10;99.90
72440;DHT22;60446;50.752;4.352;2024-03-02T08:22:08;5.20;99.90
72440;DHT22;60446;50.752;4.352;2024-03-02T08:24:36;5.30;99.90
72440;DHT22;60446;50.752;4.352;2024-03-02T08:27:03;5.30;99.90
72440;DHT22;60446;50.752;4.352;2024-03-02T08:29:31;5.40;99.90
72440;DHT22;60446;50.752;4.352;2024-03-02T08:31:58;5.50;99.90
72440;DHT22;60446;50.752;4.352;2024-03-02T08:34:26;5.50;99.90
72440;DHT22;60446;50.752;4.352;2024-03-02T08:36:53;5.60;99.90
72440;DHT22;60446;50.752;4.352;2024-03-02T08:39:20;5.70;99.90
72440;DHT22;60446;50.752;4.352;2024-03-02T08:41:48;5.70;99.90
72440;DHT22;60446;50.752;4.352;2024-03-02T08:44:16;5.80;99.90
72440;DHT22;60446;50.752;4.352;2024-03-02T08:46:44;5.90;99.90
72440;DHT22;60446;50.752;4.352;2024-03-02T08:49:12;6.00;99.90
72440;DHT22;60446;50.752;4.352;2024-03-02T08:51:43;6.10;99.90
72440;DHT22;60446;50.752;4.352;2024-03-02T08:54:11;6.20;99.90
72440;DHT22;60446;50.752;4.352;2024-03-02T08:56:38;6.40;99.90
72440;DHT22;60446;50.752;4.352;2024-03-02T08:59:05;6.50;99.90
72440;DHT22;60446;50.752;4.352;2024-03-02T09:01:33;6.60;99.90
72440;DHT22;60446;50.752;4.352;2024-03-02T09:04:01;6.60;99.90
72440;DHT22;60446;50.752;4.352;2024-03-02T09:06:29;6.70;99.90
72440;DHT22;60446;50.752;4.352;2024-03-02T09:08:56;6.70;99.90
72440;DHT22;60446;50.752;4.352;2024-03-02T09:11:23;6.70;99.90
72440;DHT22;60446;50.752;4.352;2024-03-02T09:13:52;6.80;99.90
72440;DHT22;60446;50.752;4.352;2024-03-02T09:16:20;6.80;99.90
72440;DHT22;60446;50.752;4.352;2024-03-02T09:18:47;6.90;99.90
72440;DHT22;60446;50.752;4.352;2024-03-02T09:21:18;7.00;99.90
72440;DHT22;60446;50.752;4.352;2024-03-02T09:23:46;7.00;99.90
72440;DHT22;60446;50.752;4.352;2024-03-02T09:26:16;7.10;99.90
72440;DHT22;60446;50.752;4.352;2024-03-02T09:28:44;7.20;99.90
72440;DHT22;60446;50.752;4.352;2024-03-02T09:31:11;7.30;99.90
72440;DHT22;60446;50.752;4.352;2024-03-02T09:33:39;7.50;99.90
72440;DHT22;60446;50.752;4.352;2024-03-02T09:36:17;7.70;99.90
72440;DHT22;60446;50.752;4.352;2024-03-02T09:38:45;7.80;99.90
72440;DHT22;60446;50.752;4.352;2024-03-02T09:41:14;8.00;99.90
72440;DHT22;60446;50.752;4.352;2024-03-02T09:43:42;8.20;99.90
72440;DHT22;60446;50.752;4.352;2024-03-02T09:46:10;8.20;99.90
72440;DHT22;60446;50.752;4.352;2024-03-02T09:48:38;8.10;99.90
72440;DHT22;60446;50.752;4.352;2024-03-02T09:51:05;7.80;99.90
72440;DHT22;60446;50.752;4.352;2024-03-02T09:53:33;7.80;99.90
72440;DHT22;60446;50.752;4.352;2024-03-02T09:56:01;7.70;99.90
72440;DHT22;60446;50.752;4.352;2024-03-02T09:58:29;7.90;99.90
72440;DHT22;60446;50.752;4.352;2024-03-02T10:00:58;8.00;99.90
72440;DHT22;60446;50.752;4.352;2024-03-02T10:03:26;8.20;99.90
72440;DHT22;60446;50.752;4.352;2024-03-02T10:05:55;8.40;99.90
72440;DHT22;60446;50.752;4.352;2024-03-02T10:08:23;8.60;99.90
72440;DHT22;60446;50.752;4.352;2024-03-02T10:10:50;8.90;99.90
72440;DHT22;60446;50.752;4.352;2024-03-02T10:13:17;9.00;99.90
72440;DHT22;60446;50.752;4.352;2024-03-02T10:15:45;9.10;99.90
72440;DHT22;60446;50.752;4.352;2024-03-02T10:18:15;9.20;99.90
72440;DHT22;60446;50.752;4.352;2024-03-02T10:20:54;9.20;99.90
72440;DHT22;60446;50.752;4.352;2024-03-02T10:23:21;9.20;99.90
72440;DHT22;60446;50.752;4.352;2024-03-02T10:25:48;9.30;99.90
72440;DHT22;60446;50.752;4.352;2024-03-02T10:28:24;9.20;99.90
72440;DHT22;60446;50.752;4.352;2024-03-02T10:30:51;9.10;99.90
72440;DHT22;60446;50.752;4.352;2024-03-02T10:33:20;9.10;99.90
72440;DHT22;60446;50.752;4.352;2024-03-02T10:35:49;9.20;99.90
72440;DHT22;60446;50.752;4.352;2024-03-02T10:38:17;9.20;99.90
72440;DHT22;60446;50.752;4.352;2024-03-02T10:40:47;9.20;99.90
72440;DHT22;60446;50.752;4.352;2024-03-02T10:43:16;9.40;99.90
72440;DHT22;60446;50.752;4.352;2024-03-02T10:45:47;9.50;99.90
72440;DHT22;60446;50.752;4.352;2024-03-02T10:48:20;9.60;99.90
72440;DHT22;60446;50.752;4.352;2024-03-02T10:50:48;9.60;99.90
72440;DHT22;60446;50.752;4.352;2024-03-02T10:53:16;9.60;99.90
72440;DHT22;60446;50.752;4.352;2024-03-02T10:55:44;9.70;99.90
72440;DHT22;60446;50.752;4.352;2024-03-02T10:58:14;9.60;99.90
72440;DHT22;60446;50.752;4.352;2024-03-02T11:00:43;9.70;99.90
72440;DHT22;60446;50.752;4.352;2024-03-02T11:03:12;9.80;99.90
72440;DHT22;60446;50.752;4.352;2024-03-02T11:05:44;9.80;99.90
72440;DHT22;60446;50.752;4.352;2024-03-02T11:08:18;9.80;99.90
72440;DHT22;60446;50.752;4.352;2024-03-02T11:11:37;9.90;99.90
72440;DHT22;60446;50.752;4.352;2024-03-02T11:13:58;9.90;99.90
72440;DHT22;60446;50.752;4.352;2024-03-02T11:16:36;9.80;99.90
72440;DHT22;60446;50.752;4.352;2024-03-02T11:19:14;9.70;99.90
72440;DHT22;60446;50.752;4.352;2024-03-02T11:21:44;9.90;99.90
72440;DHT22;60446;50.752;4.352;2024-03-02T11:26:51;9.80;99.90
72440;DHT22;60446;50.752;4.352;2024-03-02T11:32:17;9.90;99.90
72440;DHT22;60446;50.752;4.352;2024-03-02T11:34:49;10.00;99.90
72440;DHT22;60446;50.752;4.352;2024-03-02T11:37:18;10.00;99.90
72440;DHT22;60446;50.752;4.352;2024-03-02T11:39:50;10.00;99.90
72440;DHT22;60446;50.752;4.352;2024-03-02T11:42:18;10.10;99.90
72440;DHT22;60446;50.752;4.352;2024-03-02T11:44:47;10.20;99.90
72440;DHT22;60446;50.752;4.352;2024-03-02T11:47:17;10.30;99.90
72440;DHT22;60446;50.752;4.352;2024-03-02T11:49:54;10.40;99.90
72440;DHT22;60446;50.752;4.352;2024-03-02T11:52:22;10.50;99.90
72440;DHT22;60446;50.752;4.352;2024-03-02T11:54:52;10.60;99.90
72440;DHT22;60446;50.752;4.352;2024-03-02T11:57:21;10.80;99.90
72440;DHT22;60446;50.752;4.352;2024-03-02T11:59:53;10.80;99.90
72440;DHT22;60446;50.752;4.352;2024-03-02T12:02:21;10.80;99.90
72440;DHT22;60446;50.752;4.352;2024-03-02T12:04:49;10.80;99.90
72440;DHT22;60446;50.752;4.352;2024-03-02T12:07:22;10.70;99.90
72440;DHT22;60446;50.752;4.352;2024-03-02T12:10:00;10.60;99.90
72440;DHT22;60446;50.752;4.352;2024-03-02T12:12:32;10.60;99.90
72440;DHT22;60446;50.752;4.352;2024-03-02T12:15:00;10.60;99.90
72440;DHT22;60446;50.752;4.352;2024-03-02T12:17:29;10.70;99.90
72440;DHT22;60446;50.752;4.352;2024-03-02T12:19:56;10.80;99.90
72440;DHT22;60446;50.752;4.352;2024-03-02T12:22:24;10.90;99.90
72440;DHT22;60446;50.752;4.352;2024-03-02T12:24:51;11.20;99.90
72440;DHT22;60446;50.752;4.352;2024-03-02T12:27:19;11.30;99.90
72440;DHT22;60446;50.752;4.352;2024-03-02T12:29:48;11.20;99.90
72440;DHT22;60446;50.752;4.352;2024-03-02T12:32:16;11.20;99.90
72440;DHT22;60446;50.752;4.352;2024-03-02T12:34:46;11.10;99.90
72440;DHT22;60446;50.752;4.352;2024-03-02T12:37:16;10.90;99.90
72440;DHT22;60446;50.752;4.352;2024-03-02T12:39:45;10.90;99.90
72440;DHT22;60446;50.752;4.352;2024-03-02T12:42:13;11.00;99.90
72440;DHT22;60446;50.752;4.352;2024-03-02T12:44:40;11.00;99.90
72440;DHT22;60446;50.752;4.352;2024-03-02T12:47:07;10.90;99.90
72440;DHT22;60446;50.752;4.352;2024-03-02T12:49:35;11.00;99.90
72440;DHT22;60446;50.752;4.352;2024-03-02T12:52:02;11.20;99.90
72440;DHT22;60446;50.752;4.352;2024-03-02T12:54:30;11.50;99.90
72440;DHT22;60446;50.752;4.352;2024-03-02T12:56:57;11.60;99.90
72440;DHT22;60446;50.752;4.352;2024-03-02T12:59:24;11.70;99.90
72440;DHT22;60446;50.752;4.352;2024-03-02T13:01:54;11.80;99.90
72440;DHT22;60446;50.752;4.352;2024-03-02T13:04:28;11.70;99.90
72440;DHT22;60446;50.752;4.352;2024-03-02T13:06:56;11.70;99.90
72440;DHT22;60446;50.752;4.352;2024-03-02T13:09:24;11.70;99.90
72440;DHT22;60446;50.752;4.352;2024-03-02T13:11:52;11.50;99.90
72440;DHT22;60446;50.752;4.352;2024-03-02T13:14:22;11.40;99.90
72440;DHT22;60446;50.752;4.352;2024-03-02T13:16:51;11.40;99.90
72440;DHT22;60446;50.752;4.352;2024-03-02T13:19:20;11.40;99.90
72440;DHT22;60446;50.752;4.352;2024-03-02T13:21:47;11.40;99.90
72440;DHT22;60446;50.752;4.352;2024-03-02T13:24:19;11.50;99.90
72440;DHT22;60446;50.752;4.352;2024-03-02T13:26:46;11.60;99.90
72440;DHT22;60446;50.752;4.352;2024-03-02T13:29:13;11.60;99.90
72440;DHT22;60446;50.752;4.352;2024-03-02T13:31:45;11.60;99.90
72440;DHT22;60446;50.752;4.352;2024-03-02T13:34:12;11.60;99.90
72440;DHT22;60446;50.752;4.352;2024-03-02T13:36:39;11.50;99.90
72440;DHT22;60446;50.752;4.352;2024-03-02T13:39:07;11.50;99.90
72440;DHT22;60446;50.752;4.352;2024-03-02T13:41:40;11.50;99.90
72440;DHT22;60446;50.752;4.352;2024-03-02T13:44:07;11.40;99.90
72440;DHT22;60446;50.752;4.352;2024-03-02T13:46:34;11.40;99.90
72440;DHT22;60446;50.752;4.352;2024-03-02T13:49:01;11.40;99.90
72440;DHT22;60446;50.752;4.352;2024-03-02T13:51:29;11.30;99.90
72440;DHT22;60446;50.752;4.352;2024-03-02T13:53:56;11.30;99.90
72440;DHT22;60446;50.752;4.352;2024-03-02T13:56:24;11.30;99.90
72440;DHT22;60446;50.752;4.352;2024-03-02T13:58:51;11.10;99.90
72440;DHT22;60446;50.752;4.352;2024-03-02T14:01:18;11.00;99.90
72440;DHT22;60446;50.752;4.352;2024-03-02T14:03:46;10.90;99.90
72440;DHT22;60446;50.752;4.352;2024-03-02T14:06:14;10.90;99.90
72440;DHT22;60446;50.752;4.352;2024-03-02T14:08:41;10.90;99.90
72440;DHT22;60446;50.752;4.352;2024-03-02T14:11:11;10.90;99.90
72440;DHT22;60446;50.752;4.352;2024-03-02T14:13:41;10.80;99.90
72440;DHT22;60446;50.752;4.352;2024-03-02T14:16:11;10.80;99.90
72440;DHT22;60446;50.752;4.352;2024-03-02T14:18:38;10.70;99.90
72440;DHT22;60446;50.752;4.352;2024-03-02T14:21:05;10.70;99.90
72440;DHT22;60446;50.752;4.352;2024-03-02T14:23:33;10.60;99.90
72440;DHT22;60446;50.752;4.352;2024-03-02T14:26:00;10.50;99.90
72440;DHT22;60446;50.752;4.352;2024-03-02T14:28:27;10.50;99.90
72440;DHT22;60446;50.752;4.352;2024-03-02T14:31:15;10.50;99.90
72440;DHT22;60446;50.752;4.352;2024-03-02T14:33:42;10.60;99.90
72440;DHT22;60446;50.752;4.352;2024-03-02T14:36:09;10.70;99.90
72440;DHT22;60446;50.752;4.352;2024-03-02T14:38:37;10.70;99.90
72440;DHT22;60446;50.752;4.352;2024-03-02T14:41:05;10.70;99.90
72440;DHT22;60446;50.752;4.352;2024-03-02T14:43:32;10.80;99.90
72440;DHT22;60446;50.752;4.352;2024-03-02T14:45:59;10.90;99.90
72440;DHT22;60446;50.752;4.352;2024-03-02T14:48:27;11.00;99.90
72440;DHT22;60446;50.752;4.352;2024-03-02T14:50:54;11.00;99.90
72440;DHT22;60446;50.752;4.352;2024-03-02T14:53:21;11.00;99.90
72440;DHT22;60446;50.752;4.352;2024-03-02T14:55:48;11.00;99.90
72440;DHT22;60446;50.752;4.352;2024-03-02T14:58:17;10.90;99.90
72440;DHT22;60446;50.752;4.352;2024-03-02T15:00:44;10.90;99.90
72440;DHT22;60446;50.752;4.352;2024-03-02T15:03:11;10.80;99.90
72440;DHT22;60446;50.752;4.352;2024-03-02T15:05:39;10.90;99.90
72440;DHT22;60446;50.752;4.352;2024-03-02T15:08:06;10.80;99.90
72440;DHT22;60446;50.752;4.352;2024-03-02T15:10:35;10.70;99.90
72440;DHT22;60446;50.752;4.352;2024-03-02T15:13:03;10.60;99.90
72440;DHT22;60446;50.752;4.352;2024-03-02T15:15:30;10.50;99.90
72440;DHT22;60446;50.752;4.352;2024-03-02T15:17:57;10.50;99.90
72440;DHT22;60446;50.752;4.352;2024-03-02T15:20:26;10.50;99.90
72440;DHT22;60446;50.752;4.352;2024-03-02T15:22:54;10.40;99.90
72440;DHT22;60446;50.752;4.352;2024-03-02T15:25:21;10.30;99.90
72440;DHT22;60446;50.752;4.352;2024-03-02T15:27:48;10.30;99.90
72440;DHT22;60446;50.752;4.352;2024-03-02T15:30:16;10.30;99.90
72440;DHT22;60446;50.752;4.352;2024-03-02T15:32:44;10.30;99.90
72440;DHT22;60446;50.752;4.352;2024-03-02T15:35:12;10.20;99.90
72440;DHT22;60446;50.752;4.352;2024-03-02T15:37:39;10.30;99.90
72440;DHT22;60446;50.752;4.352;2024-03-02T15:40:06;10.20;99.90
72440;DHT22;60446;50.752;4.352;2024-03-02T15:42:35;10.20;99.90
72440;DHT22;60446;50.752;4.352;2024-03-02T15:45:03;10.30;99.90
72440;DHT22;60446;50.752;4.352;2024-03-02T15:47:34;10.20;99.90
72440;DHT22;60446;50.752;4.352;2024-03-02T15:50:03;10.20;99.90
72440;DHT22;60446;50.752;4.352;2024-03-02T15:52:31;10.20;99.90
72440;DHT22;60446;50.752;4.352;2024-03-02T15:54:58;10.20;99.90
72440;DHT22;60446;50.752;4.352;2024-03-02T15:57:25;10.30;99.90
72440;DHT22;60446;50.752;4.352;2024-03-02T15:59:54;10.30;99.90